Thursday, June 29, 2017, 5:08 AM EDT

KIPT, Williamsport-lycoming County

Location: Montoursville, PA, United States Lat: 41.25
Local Time: 5:08 AM EDT ( 9:08 GMT) Lon: -76.917
Time Zone: US/Eastern Elev: 528 ft

Show me the last for .
Show Decoded

2017-06-29 04:54 METAR KIPT 290854Z AUTO 00000KT 10SM CLR 17/13 A3009 RMK AO2 SLP186 T01670128
                 56002 =
2017-06-29 03:54 METAR KIPT 290754Z AUTO 00000KT 10SM CLR 17/13 A3009 RMK AO2 SLP187 T01670128 =
2017-06-29 02:54 METAR KIPT 290654Z AUTO 00000KT 10SM CLR 17/13 A3009 RMK AO2 SLP187 T01670128 =
2017-06-29 01:54 METAR KIPT 290554Z AUTO 00000KT 10SM CLR 16/12 A3010 RMK AO2 SLP188 T01610122
                 10228 20161 53003 =
2017-06-29 00:54 METAR KIPT 290454Z AUTO 00000KT 10SM CLR 17/13 A3010 RMK AO2 SLP189 T01670128
                 402670100 =
2017-06-28 23:54 METAR KIPT 290354Z AUTO 00000KT 10SM CLR 17/13 A3008 RMK AO2 SLP185 T01720128 =
2017-06-28 22:54 METAR KIPT 290254Z AUTO 03003KT 10SM CLR 18/13 A3008 RMK AO2 SLP185 T01830133
                 53004 =
2017-06-28 21:54 METAR KIPT 290154Z VRB05KT 10SM CLR 22/11 A3008 RMK AO2 SLP183 T02220106 =
2017-06-28 20:54 METAR KIPT 290054Z 19006KT 10SM CLR 22/11 A3006 RMK AO2 SLP178 T02220106 =
2017-06-28 19:54 METAR KIPT 282354Z 21005KT 10SM CLR 23/11 A3007 RMK AO2 SLP182 T02280111 10267
                 20228 55002 =
2017-06-28 18:54 METAR KIPT 282254Z 20005KT 10SM CLR 24/12 A3007 RMK AO2 SLP182 T02440117 =
2017-06-28 17:54 METAR KIPT 282154Z 23010KT 10SM FEW075 26/10 A3007 RMK AO2 SLP180 T02610100 =
2017-06-28 16:54 METAR KIPT 282054Z 23005KT 10SM FEW075 26/10 A3008 RMK AO2 SLP184 T02610100
                 58012 =
2017-06-28 15:54 METAR KIPT 281954Z 24010KT 10SM SCT070 27/10 A3010 RMK AO2 SLP191 T02670100 =
2017-06-28 14:54 METAR KIPT 281854Z 24008KT 10SM SCT070 24/09 A3010 RMK AO2 SLP193 T02440094 =
2017-06-28 13:54 METAR KIPT 281754Z 26009G18KT 10SM SCT070 26/09 A3012 RMK AO2 SLP196 T02610094
                 10261 20139 58012 =
2017-06-28 12:54 METAR KIPT 281654Z 25009KT 10SM SCT055 24/12 A3013 RMK AO2 SLP201 T02440117 =
2017-06-28 11:54 METAR KIPT 281554Z 26010KT 10SM CLR 23/12 A3016 RMK AO2 SLP210 T02330117 =
2017-06-28 10:54 METAR KIPT 281454Z 27009KT 10SM CLR 21/11 A3015 RMK AO2 SLP207 T02110106 58001 =
2017-06-28 09:54 METAR KIPT 281354Z 24005KT 10SM BKN070 17/11 A3015 RMK AO2 SLP210 T01720111 =
2017-06-28 08:54 METAR KIPT 281254Z 25003KT 10SM CLR 15/11 A3015 RMK AO2 SLP210 T01500111 =
2017-06-28 07:54 METAR KIPT 281154Z 27005KT 10SM FEW005 14/11 A3015 RMK AO2 SLP211 70001
                 T01390111 10139 20100 51013 =
2017-06-28 06:54 METAR KIPT 281054Z 00000KT 10SM FEW005 11/10 A3014 RMK AO2 SLP206 T01110100 =
2017-06-28 06:45 METAR KIPT 281045Z 30003KT 10SM OVC005 11/10 A3014 RMK AO2 CIG 002V006 T01110100
                 =
2017-06-28 06:15 METAR KIPT 281015Z 00000KT 6SM BR OVC003 11/10 A3013 RMK AO2 T01060100 =
2017-06-28 06:08 METAR KIPT 281008Z AUTO 00000KT 2SM BR OVC003 11/10 A3013 RMK AO2 T01060100 =
2017-06-28 06:02 METAR KIPT 281002Z AUTO 00000KT 3/4SM BR OVC003 11/11 A3013 RMK AO2 T01060106 =
2017-06-28 05:54 METAR KIPT 280954Z AUTO 00000KT 1/4SM FG VV003 11/10 A3013 RMK AO2 SLP202
                 T01060100 =
2017-06-28 05:45 METAR KIPT 280945Z AUTO 33003KT 1/4SM FG VV003 11/10 A3012 RMK AO2 T01060100 =

Support USWX by starting your Amazon purchase here.